sensor_id;sensor_type;location;lat;lon;timestamp;pressure;altitude;pressure_sealevel;temperature;humidity
12722;BME280;6425;50.316;8.114;2023-09-12T00:00:00;987;;;19.6;79.8
12722;BME280;6425;50.316;8.114;2023-09-12T00:03:00;987;;;19.5;80
12722;BME280;6425;50.316;8.114;2023-09-12T00:06:00;987;;;19.6;79.8
12722;BME280;6425;50.316;8.114;2023-09-12T00:09:00;987;;;19.9;78.9
12722;BME280;6425;50.316;8.114;2023-09-12T00:12:00;987;;;20;77.9
12722;BME280;6425;50.316;8.114;2023-09-12T00:15:00;987;;;19.3;80.1
12722;BME280;6425;50.316;8.114;2023-09-12T00:18:00;987;;;19.1;82.1
12722;BME280;6425;50.316;8.114;2023-09-12T00:21:00;987;;;19.5;80.6
12722;BME280;6425;50.316;8.114;2023-09-12T00:24:00;987;;;19.8;78.9
12722;BME280;6425;50.316;8.114;2023-09-12T00:27:00;986;;;19.8;78.6
12722;BME280;6425;50.316;8.114;2023-09-12T00:30:00;987;;;19.5;79.6
12722;BME280;6425;50.316;8.114;2023-09-12T00:33:00;987;;;19;82.2
12722;BME280;6425;50.316;8.114;2023-09-12T00:36:00;987;;;18.8;84.2
12722;BME280;6425;50.316;8.114;2023-09-12T00:39:00;987;;;18.9;84
12722;BME280;6425;50.316;8.114;2023-09-12T00:42:00;987;;;19.1;83.1
12722;BME280;6425;50.316;8.114;2023-09-12T00:45:00;987;;;19.4;81.6
12722;BME280;6425;50.316;8.114;2023-09-12T00:48:00;987;;;19.7;79.2
12722;BME280;6425;50.316;8.114;2023-09-12T00:51:00;987;;;19.7;78.3
12722;BME280;6425;50.316;8.114;2023-09-12T00:54:00;987;;;19.9;77.6
12722;BME280;6425;50.316;8.114;2023-09-12T00:57:00;987;;;19.9;77
12722;BME280;6425;50.316;8.114;2023-09-12T01:00:00;987;;;19.5;78.1
12722;BME280;6425;50.316;8.114;2023-09-12T01:03:00;987;;;19.1;80.1
12722;BME280;6425;50.316;8.114;2023-09-12T01:06:00;986;;;18.6;82.4
12722;BME280;6425;50.316;8.114;2023-09-12T01:09:00;986;;;18;86.3
12722;BME280;6425;50.316;8.114;2023-09-12T01:12:00;986;;;17.8;88.8
12722;BME280;6425;50.316;8.114;2023-09-12T01:15:00;986;;;17.9;88.7
12722;BME280;6425;50.316;8.114;2023-09-12T01:18:00;986;;;17.9;88.3
12722;BME280;6425;50.316;8.114;2023-09-12T01:21:05;986;;;18;87.8
12722;BME280;6425;50.316;8.114;2023-09-12T01:24:03;986;;;18.2;86.9
12722;BME280;6425;50.316;8.114;2023-09-12T01:27:08;986;;;18.4;85.8
12722;BME280;6425;50.316;8.114;2023-09-12T01:30:00;986;;;18.6;84.4
12722;BME280;6425;50.316;8.114;2023-09-12T01:33:00;986;;;18.5;84.4
12722;BME280;6425;50.316;8.114;2023-09-12T01:36:00;986;;;18.5;84.9
12722;BME280;6425;50.316;8.114;2023-09-12T01:39:00;986;;;18.7;83.4
12722;BME280;6425;50.316;8.114;2023-09-12T01:42:00;986;;;18.9;82.3
12722;BME280;6425;50.316;8.114;2023-09-12T01:45:00;986;;;19;81.1
12722;BME280;6425;50.316;8.114;2023-09-12T01:48:00;986;;;19;81.4
12722;BME280;6425;50.316;8.114;2023-09-12T01:51:00;986;;;18.7;80.9
12722;BME280;6425;50.316;8.114;2023-09-12T01:54:00;986;;;18.3;83.8
12722;BME280;6425;50.316;8.114;2023-09-12T01:57:00;986;;;18.4;83.3
12722;BME280;6425;50.316;8.114;2023-09-12T02:00:00;986;;;18.4;83.8
12722;BME280;6425;50.316;8.114;2023-09-12T02:03:01;986;;;18.1;86.3
12722;BME280;6425;50.316;8.114;2023-09-12T02:06:00;986;;;18;88.2
12722;BME280;6425;50.316;8.114;2023-09-12T02:09:00;986;;;18;88.4
12722;BME280;6425;50.316;8.114;2023-09-12T02:12:00;986;;;18.2;87.6
12722;BME280;6425;50.316;8.114;2023-09-12T02:15:00;986;;;18.3;86.2
12722;BME280;6425;50.316;8.114;2023-09-12T02:18:00;986;;;18.5;85.7
12722;BME280;6425;50.316;8.114;2023-09-12T02:21:00;986;;;18.6;84.5
12722;BME280;6425;50.316;8.114;2023-09-12T02:24:00;986;;;18.8;82.9
12722;BME280;6425;50.316;8.114;2023-09-12T02:27:00;986;;;18.5;83.8
12722;BME280;6425;50.316;8.114;2023-09-12T02:30:00;986;;;18.3;85.4
12722;BME280;6425;50.316;8.114;2023-09-12T02:33:00;986;;;18.1;86.6
12722;BME280;6425;50.316;8.114;2023-09-12T02:36:00;986;;;18;87.9
12722;BME280;6425;50.316;8.114;2023-09-12T02:39:00;986;;;18.4;86.8
12722;BME280;6425;50.316;8.114;2023-09-12T02:42:00;986;;;18.8;84.3
12722;BME280;6425;50.316;8.114;2023-09-12T02:45:00;986;;;19;82.1
12722;BME280;6425;50.316;8.114;2023-09-12T02:48:00;986;;;18.9;81.7
12722;BME280;6425;50.316;8.114;2023-09-12T02:51:00;986;;;18.9;82.2
12722;BME280;6425;50.316;8.114;2023-09-12T02:54:00;986;;;18;85.8
12722;BME280;6425;50.316;8.114;2023-09-12T02:57:00;986;;;18;87.9
12722;BME280;6425;50.316;8.114;2023-09-12T03:00:00;986;;;18.4;86.2
12722;BME280;6425;50.316;8.114;2023-09-12T03:03:00;986;;;18.5;84.5
12722;BME280;6425;50.316;8.114;2023-09-12T03:06:00;986;;;18.5;84.9
12722;BME280;6425;50.316;8.114;2023-09-12T03:09:00;986;;;18.6;83.9
12722;BME280;6425;50.316;8.114;2023-09-12T03:12:00;986;;;18.7;83
12722;BME280;6425;50.316;8.114;2023-09-12T03:15:00;986;;;18.5;84.2
12722;BME280;6425;50.316;8.114;2023-09-12T03:18:00;986;;;18.5;84.5
12722;BME280;6425;50.316;8.114;2023-09-12T03:21:00;986;;;18.3;85.7
12722;BME280;6425;50.316;8.114;2023-09-12T03:24:00;986;;;18;88.1
12722;BME280;6425;50.316;8.114;2023-09-12T03:27:00;986;;;17.9;89.8
12722;BME280;6425;50.316;8.114;2023-09-12T03:30:00;986;;;17.9;89.6
12722;BME280;6425;50.316;8.114;2023-09-12T03:33:00;986;;;17.9;90.7
12722;BME280;6425;50.316;8.114;2023-09-12T03:36:00;986;;;17.9;92.4
12722;BME280;6425;50.316;8.114;2023-09-12T03:39:00;986;;;18.1;90.2
12722;BME280;6425;50.316;8.114;2023-09-12T03:42:00;986;;;18;89.9
12722;BME280;6425;50.316;8.114;2023-09-12T03:45:00;986;;;17.9;91.3
12722;BME280;6425;50.316;8.114;2023-09-12T03:48:00;986;;;17.7;91.4
12722;BME280;6425;50.316;8.114;2023-09-12T03:51:00;986;;;17.5;93.6
12722;BME280;6425;50.316;8.114;2023-09-12T03:54:00;986;;;17.5;94.3
12722;BME280;6425;50.316;8.114;2023-09-12T03:57:00;986;;;17.6;94
12722;BME280;6425;50.316;8.114;2023-09-12T04:00:00;986;;;17.7;93.4
12722;BME280;6425;50.316;8.114;2023-09-12T04:03:00;986;;;18;91.4
12722;BME280;6425;50.316;8.114;2023-09-12T04:06:00;986;;;18.4;88.9
12722;BME280;6425;50.316;8.114;2023-09-12T04:09:00;986;;;18.6;86.5
12722;BME280;6425;50.316;8.114;2023-09-12T04:12:00;986;;;18.5;85.9
12722;BME280;6425;50.316;8.114;2023-09-12T04:15:00;986;;;18.5;86.5
12722;BME280;6425;50.316;8.114;2023-09-12T04:18:00;986;;;18.2;88.4
12722;BME280;6425;50.316;8.114;2023-09-12T04:21:00;986;;;17.9;90.2
12722;BME280;6425;50.316;8.114;2023-09-12T04:24:00;986;;;17.5;93.1
12722;BME280;6425;50.316;8.114;2023-09-12T04:27:00;986;;;17.4;94.8
12722;BME280;6425;50.316;8.114;2023-09-12T04:30:00;986;;;17.4;95.8
12722;BME280;6425;50.316;8.114;2023-09-12T04:33:00;986;;;17.6;95.5
12722;BME280;6425;50.316;8.114;2023-09-12T04:36:00;986;;;17.7;93.8
12722;BME280;6425;50.316;8.114;2023-09-12T04:39:00;986;;;17.7;94.2
12722;BME280;6425;50.316;8.114;2023-09-12T04:42:00;986;;;17.9;93.6
12722;BME280;6425;50.316;8.114;2023-09-12T04:45:00;986;;;18.1;92.6
12722;BME280;6425;50.316;8.114;2023-09-12T04:48:00;986;;;18.5;90.5
12722;BME280;6425;50.316;8.114;2023-09-12T04:51:00;986;;;18.7;88
12722;BME280;6425;50.316;8.114;2023-09-12T04:54:00;986;;;18.8;86
12722;BME280;6425;50.316;8.114;2023-09-12T04:57:00;986;;;17.9;90.1
12722;BME280;6425;50.316;8.114;2023-09-12T05:00:00;986;;;17.6;93.2
12722;BME280;6425;50.316;8.114;2023-09-12T05:03:00;986;;;17.7;94.1
12722;BME280;6425;50.316;8.114;2023-09-12T05:06:00;986;;;18.1;92.8
12722;BME280;6425;50.316;8.114;2023-09-12T05:09:00;986;;;18.5;90.1
12722;BME280;6425;50.316;8.114;2023-09-12T05:12:00;986;;;18.6;88.2
12722;BME280;6425;50.316;8.114;2023-09-12T05:15:00;986;;;18.7;87
12722;BME280;6425;50.316;8.114;2023-09-12T05:18:00;986;;;18.8;85.8
12722;BME280;6425;50.316;8.114;2023-09-12T05:21:00;986;;;18.9;85
12722;BME280;6425;50.316;8.114;2023-09-12T05:24:00;986;;;18.8;85.3
12722;BME280;6425;50.316;8.114;2023-09-12T05:27:00;986;;;18.7;85.8
12722;BME280;6425;50.316;8.114;2023-09-12T05:30:00;986;;;18.3;88.3
12722;BME280;6425;50.316;8.114;2023-09-12T05:33:00;986;;;18;90.9
12722;BME280;6425;50.316;8.114;2023-09-12T05:36:00;986;;;17.7;93.1
12722;BME280;6425;50.316;8.114;2023-09-12T05:39:00;986;;;17.6;94.8
12722;BME280;6425;50.316;8.114;2023-09-12T05:42:00;986;;;17.8;94.6
12722;BME280;6425;50.316;8.114;2023-09-12T05:45:00;986;;;18;93.8
12722;BME280;6425;50.316;8.114;2023-09-12T05:48:00;986;;;18.4;92.1
12722;BME280;6425;50.316;8.114;2023-09-12T05:51:00;986;;;18.8;88.5
12722;BME280;6425;50.316;8.114;2023-09-12T05:54:00;986;;;18.8;86.7
12722;BME280;6425;50.316;8.114;2023-09-12T05:57:00;986;;;18.9;86.7
12722;BME280;6425;50.316;8.114;2023-09-12T06:00:00;986;;;19;86.5
12722;BME280;6425;50.316;8.114;2023-09-12T06:03:00;986;;;19.2;85.5
12722;BME280;6425;50.316;8.114;2023-09-12T06:06:00;986;;;19.3;84.6
12722;BME280;6425;50.316;8.114;2023-09-12T06:09:00;986;;;19.6;83.7
12722;BME280;6425;50.316;8.114;2023-09-12T06:12:00;986;;;19.7;81.3
12722;BME280;6425;50.316;8.114;2023-09-12T06:15:00;986;;;19.8;80.9
12722;BME280;6425;50.316;8.114;2023-09-12T06:18:00;986;;;19.5;81.4
12722;BME280;6425;50.316;8.114;2023-09-12T06:21:00;986;;;18.1;88.9
12722;BME280;6425;50.316;8.114;2023-09-12T06:24:08;986;;;17.8;92.3
12722;BME280;6425;50.316;8.114;2023-09-12T06:27:00;986;;;17.8;93.5
12722;BME280;6425;50.316;8.114;2023-09-12T06:30:00;986;;;17.7;94.6
12722;BME280;6425;50.316;8.114;2023-09-12T06:33:00;986;;;17.9;93.7
12722;BME280;6425;50.316;8.114;2023-09-12T06:36:00;986;;;18.1;92.9
12722;BME280;6425;50.316;8.114;2023-09-12T06:39:00;986;;;18.6;90.5
12722;BME280;6425;50.316;8.114;2023-09-12T06:42:00;986;;;19.1;86.8
12722;BME280;6425;50.316;8.114;2023-09-12T06:45:00;986;;;19.3;84.4
12722;BME280;6425;50.316;8.114;2023-09-12T06:48:00;986;;;19.2;84.3
12722;BME280;6425;50.316;8.114;2023-09-12T06:51:00;986;;;19.6;83.9
12722;BME280;6425;50.316;8.114;2023-09-12T06:54:00;986;;;20.2;82
12722;BME280;6425;50.316;8.114;2023-09-12T06:57:00;986;;;20.7;77.8
12722;BME280;6425;50.316;8.114;2023-09-12T07:00:00;986;;;21;76.1
12722;BME280;6425;50.316;8.114;2023-09-12T07:03:00;986;;;21.5;75.7
12722;BME280;6425;50.316;8.114;2023-09-12T07:06:00;986;;;21.9;71.6
12722;BME280;6425;50.316;8.114;2023-09-12T07:09:00;986;;;21.9;72.5
12722;BME280;6425;50.316;8.114;2023-09-12T07:12:00;986;;;22.3;68.8
12722;BME280;6425;50.316;8.114;2023-09-12T07:15:00;986;;;22.1;70.1
12722;BME280;6425;50.316;8.114;2023-09-12T07:18:00;986;;;22.2;70.4
12722;BME280;6425;50.316;8.114;2023-09-12T07:21:00;986;;;22.6;68.7
12722;BME280;6425;50.316;8.114;2023-09-12T07:24:00;986;;;23.6;65.7
12722;BME280;6425;50.316;8.114;2023-09-12T07:27:00;986;;;24.4;61.6
12722;BME280;6425;50.316;8.114;2023-09-12T07:30:00;986;;;24.4;61.8
12722;BME280;6425;50.316;8.114;2023-09-12T07:33:00;986;;;24.7;60.2
12722;BME280;6425;50.316;8.114;2023-09-12T07:36:00;986;;;24;62.4
12722;BME280;6425;50.316;8.114;2023-09-12T07:39:00;986;;;23;65.5
12722;BME280;6425;50.316;8.114;2023-09-12T07:42:00;986;;;23.1;66.3
12722;BME280;6425;50.316;8.114;2023-09-12T07:45:00;986;;;22.6;68.5
12722;BME280;6425;50.316;8.114;2023-09-12T07:48:00;986;;;22.9;68.8
12722;BME280;6425;50.316;8.114;2023-09-12T07:51:00;986;;;23.6;65.9
12722;BME280;6425;50.316;8.114;2023-09-12T07:54:00;986;;;24.1;64.2
12722;BME280;6425;50.316;8.114;2023-09-12T07:57:00;986;;;23.1;67.3
12722;BME280;6425;50.316;8.114;2023-09-12T08:00:00;986;;;23.1;67
12722;BME280;6425;50.316;8.114;2023-09-12T08:03:00;986;;;21.7;72
12722;BME280;6425;50.316;8.114;2023-09-12T08:06:00;986;;;21.7;74.5
12722;BME280;6425;50.316;8.114;2023-09-12T08:09:00;986;;;22.7;71.1
12722;BME280;6425;50.316;8.114;2023-09-12T08:12:00;986;;;23.4;67.6
12722;BME280;6425;50.316;8.114;2023-09-12T08:15:00;986;;;23.4;67.1
12722;BME280;6425;50.316;8.114;2023-09-12T08:18:00;986;;;23.7;65.6
12722;BME280;6425;50.316;8.114;2023-09-12T08:21:00;986;;;24;64.7
12722;BME280;6425;50.316;8.114;2023-09-12T08:24:00;986;;;23.9;65.6
12722;BME280;6425;50.316;8.114;2023-09-12T08:27:00;986;;;24.3;63.8
12722;BME280;6425;50.316;8.114;2023-09-12T08:30:00;986;;;24.6;62.8
12722;BME280;6425;50.316;8.114;2023-09-12T08:33:00;986;;;24.5;63.9
12722;BME280;6425;50.316;8.114;2023-09-12T08:36:00;986;;;25.2;61.6
12722;BME280;6425;50.316;8.114;2023-09-12T08:39:00;986;;;24.6;62.9
12722;BME280;6425;50.316;8.114;2023-09-12T08:42:00;987;;;23.3;67.4
12722;BME280;6425;50.316;8.114;2023-09-12T08:45:00;987;;;23.2;66.6
12722;BME280;6425;50.316;8.114;2023-09-12T08:48:00;986;;;23;67.8
12722;BME280;6425;50.316;8.114;2023-09-12T08:51:00;986;;;23.6;66.5
12722;BME280;6425;50.316;8.114;2023-09-12T08:54:00;986;;;24.4;64.1
12722;BME280;6425;50.316;8.114;2023-09-12T08:57:00;986;;;24.3;63.5
12722;BME280;6425;50.316;8.114;2023-09-12T09:00:00;986;;;24.1;64.9
12722;BME280;6425;50.316;8.114;2023-09-12T09:03:00;986;;;24.3;64.3
12722;BME280;6425;50.316;8.114;2023-09-12T09:06:00;987;;;24.3;64.2
12722;BME280;6425;50.316;8.114;2023-09-12T09:09:00;986;;;24.3;65.5
12722;BME280;6425;50.316;8.114;2023-09-12T09:12:00;987;;;24;65.6
12722;BME280;6425;50.316;8.114;2023-09-12T09:15:19;987;;;23.6;66.5
12722;BME280;6425;50.316;8.114;2023-09-12T09:18:01;986;;;24;64.3
12722;BME280;6425;50.316;8.114;2023-09-12T09:21:00;987;;;23.9;64.6
12722;BME280;6425;50.316;8.114;2023-09-12T09:24:00;987;;;24.1;63.3
12722;BME280;6425;50.316;8.114;2023-09-12T09:27:00;987;;;24.2;62.5
12722;BME280;6425;50.316;8.114;2023-09-12T09:30:00;987;;;23.9;64.2
12722;BME280;6425;50.316;8.114;2023-09-12T09:33:02;987;;;23.8;63.6
12722;BME280;6425;50.316;8.114;2023-09-12T09:36:01;986;;;24;63.8
12722;BME280;6425;50.316;8.114;2023-09-12T09:39:00;986;;;24.3;63.9
12722;BME280;6425;50.316;8.114;2023-09-12T09:42:00;986;;;25.3;60.2
12722;BME280;6425;50.316;8.114;2023-09-12T09:45:00;986;;;24.8;62.3
12722;BME280;6425;50.316;8.114;2023-09-12T09:48:04;986;;;24.5;62.4
12722;BME280;6425;50.316;8.114;2023-09-12T09:51:00;986;;;24.4;63.3
12722;BME280;6425;50.316;8.114;2023-09-12T09:54:00;986;;;25.6;60.3
12722;BME280;6425;50.316;8.114;2023-09-12T09:57:00;986;;;25.7;60.6
12722;BME280;6425;50.316;8.114;2023-09-12T10:00:00;986;;;25.5;61.4
12722;BME280;6425;50.316;8.114;2023-09-12T10:03:00;986;;;25.6;60.3
12722;BME280;6425;50.316;8.114;2023-09-12T10:06:00;986;;;26.7;57.1
12722;BME280;6425;50.316;8.114;2023-09-12T10:09:00;986;;;27;55.8
12722;BME280;6425;50.316;8.114;2023-09-12T10:12:00;986;;;26.3;57.4
12722;BME280;6425;50.316;8.114;2023-09-12T10:15:00;986;;;25.8;58.4
12722;BME280;6425;50.316;8.114;2023-09-12T10:18:00;986;;;25.6;59
12722;BME280;6425;50.316;8.114;2023-09-12T10:21:02;986;;;25.6;60
12722;BME280;6425;50.316;8.114;2023-09-12T10:24:00;986;;;25.3;61.2
12722;BME280;6425;50.316;8.114;2023-09-12T10:27:00;986;;;25.3;61.1
12722;BME280;6425;50.316;8.114;2023-09-12T10:30:00;986;;;25.3;60.9
12722;BME280;6425;50.316;8.114;2023-09-12T10:33:00;986;;;25.3;60.7
12722;BME280;6425;50.316;8.114;2023-09-12T10:36:00;986;;;25.7;59.4
12722;BME280;6425;50.316;8.114;2023-09-12T10:39:00;986;;;26.4;57.9
12722;BME280;6425;50.316;8.114;2023-09-12T10:42:00;986;;;26.2;58.8
12722;BME280;6425;50.316;8.114;2023-09-12T10:45:00;986;;;26.2;59
12722;BME280;6425;50.316;8.114;2023-09-12T10:48:00;986;;;26.5;57.7
12722;BME280;6425;50.316;8.114;2023-09-12T10:51:00;986;;;26.3;58.3
12722;BME280;6425;50.316;8.114;2023-09-12T10:54:00;986;;;26.5;57.3
12722;BME280;6425;50.316;8.114;2023-09-12T10:57:01;986;;;26.3;58.2
12722;BME280;6425;50.316;8.114;2023-09-12T11:00:15;986;;;26.2;58.7
12722;BME280;6425;50.316;8.114;2023-09-12T11:03:11;986;;;26.8;56.1
12722;BME280;6425;50.316;8.114;2023-09-12T11:06:00;986;;;27.4;54.5
12722;BME280;6425;50.316;8.114;2023-09-12T11:09:15;986;;;28.4;52.3
12722;BME280;6425;50.316;8.114;2023-09-12T11:12:45;986;;;28.7;51
12722;BME280;6425;50.316;8.114;2023-09-12T11:15:03;986;;;28.6;51.5
12722;BME280;6425;50.316;8.114;2023-09-12T11:18:01;986;;;27.9;53.5
12722;BME280;6425;50.316;8.114;2023-09-12T11:21:00;986;;;27.2;55.6
12722;BME280;6425;50.316;8.114;2023-09-12T11:24:00;986;;;27.9;54.1
12722;BME280;6425;50.316;8.114;2023-09-12T11:27:00;986;;;28.8;51.7
12722;BME280;6425;50.316;8.114;2023-09-12T11:30:03;986;;;28.3;52.7
12722;BME280;6425;50.316;8.114;2023-09-12T11:33:02;986;;;27.3;56
12722;BME280;6425;50.316;8.114;2023-09-12T11:36:00;986;;;27;56.3
12722;BME280;6425;50.316;8.114;2023-09-12T11:39:01;986;;;26.8;56.7
12722;BME280;6425;50.316;8.114;2023-09-12T11:42:00;986;;;26.5;57.2
12722;BME280;6425;50.316;8.114;2023-09-12T11:45:00;986;;;26.3;59
12722;BME280;6425;50.316;8.114;2023-09-12T11:48:02;986;;;26.1;59.7
12722;BME280;6425;50.316;8.114;2023-09-12T11:51:00;986;;;26.2;59
12722;BME280;6425;50.316;8.114;2023-09-12T11:54:00;986;;;26;58.9
12722;BME280;6425;50.316;8.114;2023-09-12T11:57:00;986;;;26;58.5
12722;BME280;6425;50.316;8.114;2023-09-12T12:00:02;986;;;26.1;57.9
12722;BME280;6425;50.316;8.114;2023-09-12T12:03:00;986;;;26.1;58.4
12722;BME280;6425;50.316;8.114;2023-09-12T12:06:00;986;;;26;59.7
12722;BME280;6425;50.316;8.114;2023-09-12T12:09:00;986;;;25.8;59.5
12722;BME280;6425;50.316;8.114;2023-09-12T12:12:03;986;;;25.6;61.6
12722;BME280;6425;50.316;8.114;2023-09-12T12:15:00;986;;;25.9;60
12722;BME280;6425;50.316;8.114;2023-09-12T12:18:00;986;;;26.2;60.7
12722;BME280;6425;50.316;8.114;2023-09-12T12:21:00;986;;;27;59.2
12722;BME280;6425;50.316;8.114;2023-09-12T12:24:00;986;;;27.6;55.8
12722;BME280;6425;50.316;8.114;2023-09-12T12:27:00;986;;;28;54.9
12722;BME280;6425;50.316;8.114;2023-09-12T12:30:00;986;;;27.7;55.2
12722;BME280;6425;50.316;8.114;2023-09-12T12:33:00;986;;;27.5;55.2
12722;BME280;6425;50.316;8.114;2023-09-12T12:36:00;986;;;27.4;55.6
12722;BME280;6425;50.316;8.114;2023-09-12T12:39:00;986;;;27.7;55.8
12722;BME280;6425;50.316;8.114;2023-09-12T12:42:00;986;;;27.9;54.8
12722;BME280;6425;50.316;8.114;2023-09-12T12:45:00;986;;;27.1;57.5
12722;BME280;6425;50.316;8.114;2023-09-12T12:48:00;986;;;26.8;60.2
12722;BME280;6425;50.316;8.114;2023-09-12T12:51:05;986;;;27.3;57.6
12722;BME280;6425;50.316;8.114;2023-09-12T12:54:03;986;;;27.4;56.8
12722;BME280;6425;50.316;8.114;2023-09-12T12:57:00;986;;;27.5;56.7
12722;BME280;6425;50.316;8.114;2023-09-12T13:00:00;986;;;27.1;56.9
12722;BME280;6425;50.316;8.114;2023-09-12T13:03:00;986;;;27;58
12722;BME280;6425;50.316;8.114;2023-09-12T13:06:00;986;;;27.2;56.4
12722;BME280;6425;50.316;8.114;2023-09-12T13:09:00;986;;;27.5;56.2
12722;BME280;6425;50.316;8.114;2023-09-12T13:12:00;986;;;27.6;56.2
12722;BME280;6425;50.316;8.114;2023-09-12T13:15:01;986;;;27.8;55.4
12722;BME280;6425;50.316;8.114;2023-09-12T13:18:00;986;;;27.4;56.5
12722;BME280;6425;50.316;8.114;2023-09-12T13:21:00;986;;;27.3;57.3
12722;BME280;6425;50.316;8.114;2023-09-12T13:24:00;986;;;27.5;57
12722;BME280;6425;50.316;8.114;2023-09-12T13:27:00;986;;;28;54.8
12722;BME280;6425;50.316;8.114;2023-09-12T13:30:00;986;;;28.2;55.3
12722;BME280;6425;50.316;8.114;2023-09-12T13:33:00;986;;;28.3;55.4
12722;BME280;6425;50.316;8.114;2023-09-12T13:36:00;986;;;28.2;55.1
12722;BME280;6425;50.316;8.114;2023-09-12T13:44:48;986;;;27.8;57
12722;BME280;6425;50.316;8.114;2023-09-12T13:44:49;986;;;27.8;57
12722;BME280;6425;50.316;8.114;2023-09-12T13:45:00;986;;;27.8;57
12722;BME280;6425;50.316;8.114;2023-09-12T13:48:00;986;;;27.1;59.5
12722;BME280;6425;50.316;8.114;2023-09-12T13:51:00;986;;;27.1;59.6
12722;BME280;6425;50.316;8.114;2023-09-12T13:54:00;986;;;27.6;57.3
12722;BME280;6425;50.316;8.114;2023-09-12T13:57:00;986;;;28.7;54.7
12722;BME280;6425;50.316;8.114;2023-09-12T14:00:00;986;;;28.4;55.8
12722;BME280;6425;50.316;8.114;2023-09-12T14:03:00;986;;;27;59.7
12722;BME280;6425;50.316;8.114;2023-09-12T14:06:00;986;;;26.6;60.9
12722;BME280;6425;50.316;8.114;2023-09-12T14:09:00;986;;;26.3;62.6
12722;BME280;6425;50.316;8.114;2023-09-12T14:12:00;986;;;26.4;62.8
12722;BME280;6425;50.316;8.114;2023-09-12T14:15:00;986;;;26.3;63.1
12722;BME280;6425;50.316;8.114;2023-09-12T14:18:00;986;;;26;65.4
12722;BME280;6425;50.316;8.114;2023-09-12T14:21:00;986;;;26;65.5
12722;BME280;6425;50.316;8.114;2023-09-12T14:24:00;986;;;26.1;64.9
12722;BME280;6425;50.316;8.114;2023-09-12T14:27:00;986;;;25.8;65.1
12722;BME280;6425;50.316;8.114;2023-09-12T14:30:00;986;;;25.9;64.6
12722;BME280;6425;50.316;8.114;2023-09-12T14:33:00;985;;;26.4;63.2
12722;BME280;6425;50.316;8.114;2023-09-12T14:36:00;985;;;26.7;62.6
12722;BME280;6425;50.316;8.114;2023-09-12T14:39:00;985;;;27.1;61.3
12722;BME280;6425;50.316;8.114;2023-09-12T14:42:00;985;;;26.7;63.3
12722;BME280;6425;50.316;8.114;2023-09-12T14:45:00;985;;;26.6;63.3
12722;BME280;6425;50.316;8.114;2023-09-12T14:48:00;985;;;27;61.7
12722;BME280;6425;50.316;8.114;2023-09-12T14:51:00;985;;;27.7;59.9
12722;BME280;6425;50.316;8.114;2023-09-12T14:54:00;985;;;28.1;59
12722;BME280;6425;50.316;8.114;2023-09-12T14:57:00;985;;;27.7;59
12722;BME280;6425;50.316;8.114;2023-09-12T15:00:00;985;;;27.9;58.7
12722;BME280;6425;50.316;8.114;2023-09-12T15:03:00;985;;;28.1;57.9
12722;BME280;6425;50.316;8.114;2023-09-12T15:06:00;985;;;27;60.5
12722;BME280;6425;50.316;8.114;2023-09-12T15:09:00;985;;;26.8;62
12722;BME280;6425;50.316;8.114;2023-09-12T15:12:00;985;;;27.1;61.7
12722;BME280;6425;50.316;8.114;2023-09-12T15:15:00;985;;;27;61.3
12722;BME280;6425;50.316;8.114;2023-09-12T15:18:00;985;;;27;61.2
12722;BME280;6425;50.316;8.114;2023-09-12T15:21:00;985;;;27.1;60.3
12722;BME280;6425;50.316;8.114;2023-09-12T15:24:00;985;;;26.8;60.7
12722;BME280;6425;50.316;8.114;2023-09-12T15:27:00;985;;;26.8;60.9
12722;BME280;6425;50.316;8.114;2023-09-12T15:30:00;985;;;27.3;60.1
12722;BME280;6425;50.316;8.114;2023-09-12T15:33:00;985;;;27.9;59.1
12722;BME280;6425;50.316;8.114;2023-09-12T15:36:00;985;;;27.6;59.9
12722;BME280;6425;50.316;8.114;2023-09-12T15:39:00;985;;;27.7;60
12722;BME280;6425;50.316;8.114;2023-09-12T15:42:00;985;;;27.3;60.1
12722;BME280;6425;50.316;8.114;2023-09-12T15:45:00;985;;;27;61.1
12722;BME280;6425;50.316;8.114;2023-09-12T15:48:00;985;;;26.6;62.4
12722;BME280;6425;50.316;8.114;2023-09-12T15:51:00;985;;;26.7;62.5
12722;BME280;6425;50.316;8.114;2023-09-12T15:54:00;985;;;27.1;60.6
12722;BME280;6425;50.316;8.114;2023-09-12T15:57:00;985;;;26.8;61.1
12722;BME280;6425;50.316;8.114;2023-09-12T16:00:00;985;;;26.3;62.6
12722;BME280;6425;50.316;8.114;2023-09-12T16:03:00;985;;;26.4;62.8
12722;BME280;6425;50.316;8.114;2023-09-12T16:06:00;985;;;26.7;61.6
12722;BME280;6425;50.316;8.114;2023-09-12T16:09:00;985;;;26.5;62.2
12722;BME280;6425;50.316;8.114;2023-09-12T16:12:00;985;;;26.6;61.7
12722;BME280;6425;50.316;8.114;2023-09-12T16:15:00;985;;;26.6;62.4
12722;BME280;6425;50.316;8.114;2023-09-12T16:18:00;985;;;26.8;61.4
12722;BME280;6425;50.316;8.114;2023-09-12T16:21:00;985;;;26.5;62.4
12722;BME280;6425;50.316;8.114;2023-09-12T16:24:00;985;;;27;60.9
12722;BME280;6425;50.316;8.114;2023-09-12T16:27:00;985;;;26.9;61.2
12722;BME280;6425;50.316;8.114;2023-09-12T16:30:00;985;;;27.4;59.5
12722;BME280;6425;50.316;8.114;2023-09-12T16:33:00;985;;;27.4;59.3
12722;BME280;6425;50.316;8.114;2023-09-12T16:36:00;985;;;26.9;60.6
12722;BME280;6425;50.316;8.114;2023-09-12T16:39:00;985;;;27.1;60.6
12722;BME280;6425;50.316;8.114;2023-09-12T16:42:00;985;;;27;60.9
12722;BME280;6425;50.316;8.114;2023-09-12T16:45:00;985;;;26.9;60.8
12722;BME280;6425;50.316;8.114;2023-09-12T16:48:00;985;;;26.4;62.1
12722;BME280;6425;50.316;8.114;2023-09-12T16:51:00;985;;;26.3;63.1
12722;BME280;6425;50.316;8.114;2023-09-12T16:54:00;985;;;26.1;63.5
12722;BME280;6425;50.316;8.114;2023-09-12T16:57:00;985;;;25.9;64.4
12722;BME280;6425;50.316;8.114;2023-09-12T17:00:00;985;;;25.9;64.2
12722;BME280;6425;50.316;8.114;2023-09-12T17:03:00;985;;;25.7;64.8
12722;BME280;6425;50.316;8.114;2023-09-12T17:06:00;985;;;26;64
12722;BME280;6425;50.316;8.114;2023-09-12T17:09:00;985;;;26.2;63.4
12722;BME280;6425;50.316;8.114;2023-09-12T17:12:00;985;;;26.5;62.5
12722;BME280;6425;50.316;8.114;2023-09-12T17:15:00;985;;;26.8;61.2
12722;BME280;6425;50.316;8.114;2023-09-12T17:18:00;985;;;26.8;60.9
12722;BME280;6425;50.316;8.114;2023-09-12T17:21:00;985;;;26.7;61.1
12722;BME280;6425;50.316;8.114;2023-09-12T17:24:00;985;;;26.8;60.7
12722;BME280;6425;50.316;8.114;2023-09-12T17:27:00;985;;;26.7;61.5
12722;BME280;6425;50.316;8.114;2023-09-12T17:30:00;985;;;26.5;62.3
12722;BME280;6425;50.316;8.114;2023-09-12T17:33:00;985;;;26.4;62.9
12722;BME280;6425;50.316;8.114;2023-09-12T17:36:00;985;;;26.2;64
12722;BME280;6425;50.316;8.114;2023-09-12T17:39:00;985;;;26.1;64.6
12722;BME280;6425;50.316;8.114;2023-09-12T17:42:00;985;;;25.9;65.7
12722;BME280;6425;50.316;8.114;2023-09-12T17:45:00;985;;;25.7;66.2
12722;BME280;6425;50.316;8.114;2023-09-12T17:48:00;985;;;25.3;67.6
12722;BME280;6425;50.316;8.114;2023-09-12T17:51:00;985;;;25.2;68.3